Welcome to the New NWS' Forecast!
Most changes are behind the scenes, but click here for differences you might notice.

Terminal Aerodrome Forecast (TAF)

Issued by National Weather Service (NWS)

                            
085 
FTUS42 KKEY 130525
TAFEYW
TAF
KEYW 130525Z 1306/1406 VRB04KT P6SM VCTS SCT025CB SCT050 SCT250
     FM130700 14007KT P6SM SCT025 SCT250=